Time;durP1;ratioP1;P1;durP2;ratioP2;P2;SDS_P1;SDS_P2;PMS_P1;PMS_P2;Temp;Humidity;BMP_temperature;BMP_pressure;BME280_temperature;BME280_humidity;BME280_pressure;Samples;Min_cycle;Max_cycle;Signal;HPM_P1;HPM_P2
2022/08/13 00:00:41;;;;;;;10.63;7.82;;;24.80;69.70;;;;;;7649688;22;80306;-71
2022/08/13 00:03:42;;;;;;;11.75;8.48;;;24.80;69.80;;;;;;7649250;22;80520;-69
2022/08/13 00:09:43;;;;;;;12.55;7.70;;;24.80;69.80;;;;;;7649115;22;81662;-68
2022/08/13 00:13:03;;;;;;;12.85;8.02;;;24.80;69.80;;;;;;7649133;22;82313;-69
2022/08/13 00:16:04;;;;;;;11.27;8.27;;;24.80;69.80;;;;;;7649654;22;80488;-69
2022/08/13 00:19:05;;;;;;;11.45;7.93;;;24.80;69.90;;;;;;7649334;22;80393;-69
2022/08/13 00:22:05;;;;;;;10.77;7.82;;;24.80;69.90;;;;;;7649436;22;80744;-69
2022/08/13 00:25:06;;;;;;;14.93;7.95;;;24.80;69.90;;;;;;7649300;22;80307;-69
2022/08/13 00:28:06;;;;;;;11.38;7.38;;;24.80;69.90;;;;;;7649360;22;80460;-70
2022/08/13 00:31:07;;;;;;;11.50;8.00;;;24.80;69.80;;;;;;7649514;22;80595;-69
2022/08/13 00:34:07;;;;;;;12.98;8.25;;;24.90;70.60;;;;;;7649581;22;80272;-70
2022/08/13 00:37:09;;;;;;;10.55;7.93;;;24.80;69.90;;;;;;7649310;22;81366;-71
2022/08/13 00:40:09;;;;;;;11.65;8.07;;;24.80;69.90;;;;;;7649951;22;80628;-70
2022/08/13 00:43:10;;;;;;;10.30;7.53;;;24.80;70.00;;;;;;7649280;22;80515;-70
2022/08/13 00:46:13;;;;;;;12.60;8.38;;;24.90;70.00;;;;;;7647652;22;80898;-71
2022/08/13 00:49:13;;;;;;;12.20;8.13;;;24.80;69.90;;;;;;7648990;22;81114;-72
2022/08/13 00:52:14;;;;;;;11.65;8.32;;;24.80;70.00;;;;;;7649131;22;80741;-73
2022/08/13 00:55:17;;;;;;;11.15;7.95;;;24.80;70.00;;;;;;7649315;22;87356;-73
2022/08/13 00:58:19;;;;;;;12.43;8.32;;;24.80;70.10;;;;;;7648633;22;81299;-74
2022/08/13 01:01:25;;;;;;;10.18;7.20;;;24.80;70.10;;;;;;7649245;22;80256;-72
2022/08/13 01:04:25;;;;;;;12.43;8.13;;;24.80;70.20;;;;;;7649487;22;81626;-72
2022/08/13 01:07:26;;;;;;;13.27;8.07;;;24.80;70.20;;;;;;7649175;22;80600;-73
2022/08/13 01:10:26;;;;;;;10.32;7.97;;;24.80;70.20;;;;;;7649579;22;80851;-72
2022/08/13 01:13:28;;;;;;;11.48;8.10;;;24.80;70.30;;;;;;7649327;22;80236;-72
2022/08/13 01:16:28;;;;;;;11.48;8.45;;;24.80;70.40;;;;;;7649238;22;80781;-73
2022/08/13 01:19:30;;;;;;;11.40;8.00;;;24.80;70.40;;;;;;7649328;22;80286;-70
2022/08/13 01:22:32;;;;;;;11.32;8.13;;;24.80;70.40;;;;;;7649395;22;81958;-72
2022/08/13 01:25:33;;;;;;;11.75;8.43;;;24.80;70.50;;;;;;7649071;22;80373;-72
2022/08/13 01:28:34;;;;;;;12.38;7.35;;;24.80;70.60;;;;;;7649299;22;80688;-70
2022/08/13 01:31:35;;;;;;;13.05;8.25;;;24.70;70.50;;;;;;7649396;22;81323;-69
2022/08/13 01:34:35;;;;;;;13.68;9.02;;;24.80;70.60;;;;;;7646814;22;82097;-72
2022/08/13 01:37:37;;;;;;;13.65;8.50;;;24.80;70.60;;;;;;7647534;22;80412;-72
2022/08/13 01:40:38;;;;;;;11.70;8.55;;;24.70;70.60;;;;;;7649089;22;80385;-72
2022/08/13 01:43:38;;;;;;;12.38;8.27;;;24.80;70.60;;;;;;7649894;22;80419;-72
2022/08/13 01:53:18;;;;;;;15.25;9.68;;;24.80;70.60;;;;;;7648650;22;84623;-73
2022/08/13 01:56:21;;;;;;;11.73;8.43;;;24.80;70.60;;;;;;7647327;22;82920;-71
2022/08/13 01:59:21;;;;;;;14.30;9.27;;;24.80;70.60;;;;;;7648610;22;80480;-71
2022/08/13 02:02:23;;;;;;;12.35;8.18;;;24.80;70.60;;;;;;7649328;22;80327;-70
2022/08/13 02:05:26;;;;;;;14.75;8.70;;;24.70;70.60;;;;;;7647275;22;80367;-68
2022/08/13 02:08:26;;;;;;;18.40;9.02;;;24.80;70.70;;;;;;7648463;22;80823;-69
2022/08/13 02:11:27;;;;;;;14.27;9.38;;;24.70;70.60;;;;;;7648165;22;80256;-69
2022/08/13 02:14:27;;;;;;;15.27;9.43;;;24.80;70.60;;;;;;7648541;22;80368;-70
2022/08/13 02:17:28;;;;;;;15.77;9.90;;;24.80;70.60;;;;;;7648352;22;80490;-70
2022/08/13 02:20:28;;;;;;;15.35;9.27;;;24.80;70.60;;;;;;7648589;22;80384;-71
2022/08/13 02:23:31;;;;;;;17.40;10.32;;;24.80;70.70;;;;;;7648797;22;80352;-70
2022/08/13 02:26:32;;;;;;;15.27;9.98;;;24.80;70.60;;;;;;7644663;22;83221;-70
2022/08/13 02:29:33;;;;;;;17.77;10.35;;;24.80;70.60;;;;;;7644889;22;83024;-71
2022/08/13 02:32:35;;;;;;;14.98;9.73;;;24.70;70.70;;;;;;7644295;22;83064;-70
2022/08/13 02:35:36;;;;;;;14.98;9.95;;;24.70;70.80;;;;;;7648709;22;83337;-71
2022/08/13 02:38:37;;;;;;;15.27;9.90;;;24.70;71.00;;;;;;7648847;22;80271;-70
2022/08/13 02:41:43;;;;;;;16.38;10.50;;;24.80;71.00;;;;;;7648671;22;80741;-70
2022/08/13 02:44:44;;;;;;;17.27;10.48;;;24.70;71.00;;;;;;7644314;22;82882;-69
2022/08/13 02:47:45;;;;;;;18.90;10.88;;;24.70;71.10;;;;;;7644994;22;82958;-71
2022/08/13 02:50:46;;;;;;;16.50;10.63;;;24.70;71.10;;;;;;7644792;22;82752;-68
2022/08/13 02:53:47;;;;;;;17.33;10.25;;;24.80;71.20;;;;;;7644343;22;83139;-68
2022/08/13 02:56:47;;;;;;;13.70;9.43;;;24.70;71.10;;;;;;7641753;22;83030;-71
2022/08/13 02:59:47;;;;;;;13.18;9.27;;;24.80;71.00;;;;;;7647775;22;82916;-70
2022/08/13 03:02:48;;;;;;;14.15;9.07;;;24.80;70.90;;;;;;7648433;22;80318;-73
2022/08/13 03:05:48;;;;;;;13.20;9.50;;;24.80;70.90;;;;;;7649454;22;80603;-70
2022/08/13 03:08:51;;;;;;;13.65;8.75;;;24.90;70.80;;;;;;7650124;22;80474;-69
2022/08/13 03:11:52;;;;;;;16.67;9.75;;;24.90;70.80;;;;;;7651310;22;80353;-69
2022/08/13 03:14:53;;;;;;;14.73;9.02;;;24.90;70.70;;;;;;7655960;22;80686;-70
2022/08/13 03:17:53;;;;;;;13.93;9.52;;;24.90;70.80;;;;;;7653405;22;80366;-72
2022/08/13 03:20:54;;;;;;;17.38;9.55;;;24.80;70.70;;;;;;7650661;22;80936;-73
2022/08/13 03:23:54;;;;;;;15.80;9.85;;;24.80;70.70;;;;;;7650434;22;80217;-73
2022/08/13 03:26:55;;;;;;;17.83;10.40;;;24.80;70.70;;;;;;7650498;22;80537;-74
2022/08/13 03:29:55;;;;;;;16.83;10.13;;;24.80;70.90;;;;;;7646091;22;82823;-73
2022/08/13 03:32:55;;;;;;;11.98;8.35;;;24.80;70.90;;;;;;7646052;22;82702;-72
2022/08/13 03:35:56;;;;;;;15.85;9.93;;;24.80;70.90;;;;;;7649992;22;82819;-72
2022/08/13 03:38:57;;;;;;;15.65;10.15;;;24.80;70.90;;;;;;7649355;22;80617;-71
2022/08/13 03:41:59;;;;;;;16.20;8.95;;;24.90;70.80;;;;;;7645483;22;83007;-70
2022/08/13 03:44:59;;;;;;;15.68;9.88;;;24.80;70.80;;;;;;7649266;22;83382;-71
2022/08/13 03:48:00;;;;;;;14.98;9.77;;;24.80;70.90;;;;;;7649498;22;80689;-70
2022/08/13 03:51:01;;;;;;;16.38;9.95;;;24.80;70.80;;;;;;7649647;22;80745;-72
2022/08/13 03:54:02;;;;;;;14.73;9.07;;;24.80;70.90;;;;;;7649500;22;80750;-72
2022/08/13 03:57:02;;;;;;;15.38;9.80;;;24.80;70.90;;;;;;7650420;22;80600;-71
2022/08/13 04:00:03;;;;;;;14.80;10.07;;;24.80;70.90;;;;;;7649470;22;81703;-72
2022/08/13 04:03:12;;;;;;;14.57;9.98;;;24.80;71.10;;;;;;7645668;22;82917;-72
2022/08/13 04:06:15;;;;;;;18.08;9.23;;;24.80;71.00;;;;;;7645553;22;83092;-73
2022/08/13 04:09:15;;;;;;;16.52;9.00;;;24.80;71.10;;;;;;7649667;22;82771;-73
2022/08/13 04:12:16;;;;;;;18.67;10.90;;;24.80;70.90;;;;;;7648169;22;81622;-70
2022/08/13 04:15:16;;;;;;;16.77;9.68;;;24.80;70.60;;;;;;7645819;22;83659;-71
2022/08/13 04:18:17;;;;;;;12.25;9.40;;;24.90;70.80;;;;;;7649141;22;83316;-72
2022/08/13 04:21:17;;;;;;;16.88;10.82;;;24.90;71.00;;;;;;7649615;22;80138;-75
2022/08/13 04:24:18;;;;;;;16.40;11.15;;;24.90;70.80;;;;;;7645474;22;83003;-72
2022/08/13 04:27:19;;;;;;;15.95;10.02;;;24.90;70.70;;;;;;7645350;22;82954;-70
2022/08/13 04:30:20;;;;;;;13.80;9.05;;;24.90;70.80;;;;;;7644797;22;82882;-66
2022/08/13 04:33:20;;;;;;;15.60;9.45;;;24.90;71.60;;;;;;7648705;22;81530;-69
2022/08/13 04:36:21;;;;;;;21.33;9.57;;;24.90;71.40;;;;;;7646295;22;80537;-67
2022/08/13 04:39:22;;;;;;;20.98;10.05;;;24.90;71.20;;;;;;7649196;22;80692;-71
2022/08/13 04:42:23;;;;;;;13.98;9.20;;;24.90;71.70;;;;;;7645207;22;82755;-66
2022/08/13 04:45:23;;;;;;;21.08;10.02;;;24.90;71.60;;;;;;7648307;22;81649;-66
2022/08/13 04:48:24;;;;;;;18.23;9.52;;;24.90;71.70;;;;;;7644762;22;82932;-70
2022/08/13 04:51:25;;;;;;;12.48;9.95;;;24.90;72.40;;;;;;7648392;22;82953;-68
2022/08/13 04:54:28;;;;;;;15.57;9.73;;;24.90;71.60;;;;;;7647638;22;80721;-73
2022/08/13 04:57:29;;;;;;;173.82;73.60;;;24.90;71.40;;;;;;7648354;22;81281;-72
2022/08/13 05:00:32;;;;;;;382.45;161.77;;;25.00;71.10;;;;;;7643353;22;83123;-67
2022/08/13 05:03:32;;;;;;;402.50;172.43;;;25.00;71.20;;;;;;7639807;22;85773;-68
2022/08/13 05:06:33;;;;;;;439.08;194.82;;;25.00;71.60;;;;;;7639792;22;85843;-67
2022/08/13 05:09:33;;;;;;;425.17;180.63;;;25.00;71.90;;;;;;7639808;22;85643;-68
2022/08/13 05:12:34;;;;;;;361.98;151.93;;;25.00;71.90;;;;;;7640315;22;85574;-68
2022/08/13 05:15:39;;;;;;;309.35;130.63;;;25.00;72.10;;;;;;7640940;22;85706;-72
2022/08/13 05:18:42;;;;;;;287.55;126.55;;;25.00;72.20;;;;;;7641607;22;85235;-76
2022/08/13 05:21:42;;;;;;;235.68;105.20;;;25.00;72.10;;;;;;7640610;22;85537;-69
2022/08/13 05:24:43;;;;;;;217.63;99.32;;;25.00;72.20;;;;;;7640601;22;86310;-70
2022/08/13 05:27:44;;;;;;;134.18;57.65;;;25.00;72.10;;;;;;7644501;22;85584;-69
2022/08/13 05:30:46;;;;;;;132.07;57.28;;;25.00;71.90;;;;;;7644341;22;83669;-69
2022/08/13 05:33:47;;;;;;;115.30;51.13;;;25.00;72.60;;;;;;7644056;22;83167;-69
2022/08/13 05:36:47;;;;;;;106.82;48.70;;;25.00;72.30;;;;;;7644442;22;83019;-68
2022/08/13 05:39:48;;;;;;;112.35;42.17;;;25.00;72.60;;;;;;7644170;22;83109;-68
2022/08/13 05:42:48;;;;;;;71.72;31.95;;;25.00;72.60;;;;;;7644376;22;83118;-70
2022/08/13 05:45:49;;;;;;;69.45;30.25;;;25.00;72.70;;;;;;7645078;22;83135;-75
2022/08/13 05:48:58;;;;;;;58.25;28.42;;;25.00;72.70;;;;;;7644789;22;83288;-74
2022/08/13 05:51:59;;;;;;;48.13;22.95;;;25.00;72.50;;;;;;7644612;22;83046;-69
2022/08/13 05:54:59;;;;;;;60.42;23.33;;;25.00;72.50;;;;;;7644131;22;89351;-69
2022/08/13 05:58:00;;;;;;;36.80;19.75;;;25.00;72.60;;;;;;7644652;22;83462;-71
2022/08/13 06:04:21;;;;;;;31.50;16.27;;;24.90;73.30;;;;;;7639473;22;83197;-70
2022/08/13 06:07:22;;;;;;;26.67;13.82;;;24.90;73.40;;;;;;7644088;22;83538;-71
2022/08/13 06:10:22;;;;;;;25.75;14.70;;;24.90;73.10;;;;;;7644086;22;83024;-71
2022/08/13 06:13:22;;;;;;;24.20;14.23;;;24.90;73.00;;;;;;7643802;22;83039;-72
2022/08/13 06:16:23;;;;;;;25.08;14.57;;;24.90;73.00;;;;;;7644509;22;83718;-73
2022/08/13 06:19:24;;;;;;;24.73;13.82;;;24.90;73.20;;;;;;7644134;22;83222;-70
2022/08/13 06:22:25;;;;;;;27.35;14.60;;;24.90;73.80;;;;;;7643356;22;89495;-71
2022/08/13 06:25:27;;;;;;;23.70;14.00;;;24.90;73.40;;;;;;7644307;22;82701;-71
2022/08/13 06:28:28;;;;;;;21.85;12.93;;;24.90;74.00;;;;;;7644063;22;83436;-72
2022/08/13 06:31:30;;;;;;;25.17;13.85;;;24.90;73.90;;;;;;7643205;22;83021;-69
2022/08/13 06:34:35;;;;;;;20.55;12.15;;;24.90;74.60;;;;;;7644002;22;83139;-70
2022/08/13 06:37:35;;;;;;;21.52;13.18;;;24.90;74.90;;;;;;7644073;22;82980;-71
2022/08/13 06:40:36;;;;;;;26.02;13.15;;;24.90;75.20;;;;;;7643457;22;83402;-76
2022/08/13 06:43:36;;;;;;;18.77;12.40;;;25.00;74.90;;;;;;7642829;22;83360;-73
2022/08/13 06:46:38;;;;;;;25.23;12.85;;;25.00;74.90;;;;;;7642296;22;83300;-73
2022/08/13 06:49:39;;;;;;;21.98;12.57;;;25.10;74.60;;;;;;7644115;22;83104;-74
2022/08/13 06:52:40;;;;;;;21.45;12.98;;;25.10;73.70;;;;;;7644986;22;83090;-83
2022/08/13 06:55:40;;;;;;;18.42;12.02;;;25.10;74.00;;;;;;7644906;22;83137;-77
2022/08/13 06:58:41;;;;;;;22.30;12.50;;;25.10;74.10;;;;;;7644914;22;83507;-73
2022/08/13 07:01:41;;;;;;;18.50;11.88;;;25.00;74.20;;;;;;7644062;22;83363;-73
2022/08/13 07:04:42;;;;;;;23.13;12.38;;;25.00;74.60;;;;;;7643925;22;83162;-69
2022/08/13 07:07:44;;;;;;;24.95;12.65;;;25.00;74.90;;;;;;7644058;22;83416;-67
2022/08/13 07:10:51;;;;;;;24.65;12.30;;;25.00;75.50;;;;;;7642635;22;84418;-70
2022/08/13 07:14:05;;;;;;;20.23;11.98;;;24.90;75.80;;;;;;7642137;22;83380;-71
2022/08/13 07:17:06;;;;;;;20.63;11.35;;;24.90;75.80;;;;;;7644070;22;82956;-71
2022/08/13 07:20:06;;;;;;;27.27;11.95;;;24.90;76.10;;;;;;7643014;22;82998;-71
2022/08/13 07:23:07;;;;;;;21.58;11.98;;;24.90;76.10;;;;;;7643380;22;83280;-72
2022/08/13 07:26:07;;;;;;;19.58;11.73;;;24.80;76.20;;;;;;7643751;22;83240;-71
2022/08/13 07:29:09;;;;;;;18.95;10.65;;;24.80;76.40;;;;;;7642327;22;84163;-71
2022/08/13 07:32:09;;;;;;;17.02;10.25;;;24.80;76.50;;;;;;7643197;22;84759;-72
2022/08/13 07:35:11;;;;;;;17.35;10.88;;;24.70;76.50;;;;;;7644813;22;82902;-73
2022/08/13 07:38:13;;;;;;;19.40;11.55;;;24.70;76.90;;;;;;7642394;22;84433;-72
2022/08/13 07:41:13;;;;;;;21.83;11.30;;;24.70;77.80;;;;;;7644364;22;83480;-72
2022/08/13 07:44:14;;;;;;;19.23;12.02;;;24.60;77.50;;;;;;7644186;22;82882;-72
2022/08/13 07:47:15;;;;;;;18.90;12.07;;;24.60;77.90;;;;;;7642074;22;83516;-72
2022/08/13 07:50:15;;;;;;;15.75;10.93;;;24.60;78.10;;;;;;7643498;22;87423;-71
2022/08/13 07:53:16;;;;;;;16.80;10.75;;;24.60;78.30;;;;;;7643646;22;84201;-72
2022/08/13 07:56:16;;;;;;;18.02;9.90;;;24.60;78.50;;;;;;7644258;22;83022;-71
2022/08/13 07:59:20;;;;;;;18.48;10.52;;;24.60;78.80;;;;;;7649162;22;81698;-71
2022/08/13 08:02:21;;;;;;;13.38;9.05;;;24.60;79.00;;;;;;7643922;22;83359;-71
2022/08/13 08:05:22;;;;;;;14.32;9.52;;;24.60;79.20;;;;;;7649663;22;82829;-71
2022/08/13 08:08:24;;;;;;;15.45;9.68;;;24.60;79.40;;;;;;7649260;22;80560;-71
2022/08/13 08:14:44;;;;;;;12.32;8.52;;;24.60;80.00;;;;;;7646025;22;83020;-71
2022/08/13 08:17:44;;;;;;;15.85;9.23;;;24.50;80.40;;;;;;7649843;22;82649;-72
2022/08/13 08:20:45;;;;;;;15.95;9.15;;;24.50;80.90;;;;;;7652934;22;80797;-72
2022/08/13 08:23:45;;;;;;;13.20;8.32;;;24.50;81.10;;;;;;7652743;22;80452;-72
2022/08/13 08:26:47;;;;;;;13.85;8.68;;;24.50;81.50;;;;;;7652424;22;81672;-72
2022/08/13 08:29:48;;;;;;;16.52;8.43;;;24.50;81.50;;;;;;7651775;22;80258;-73
2022/08/13 08:32:51;;;;;;;13.27;7.97;;;24.50;81.70;;;;;;7649671;22;80355;-71
2022/08/13 08:35:51;;;;;;;12.68;8.07;;;24.50;82.30;;;;;;7651128;22;80255;-72
2022/08/13 08:45:31;;;;;;;16.05;9.00;;;24.40;83.40;;;;;;7650784;22;80364;-72
2022/08/13 08:48:32;;;;;;;18.38;8.80;;;24.30;84.10;;;;;;7650445;22;80194;-71
2022/08/13 08:51:33;;;;;;;13.32;8.68;;;24.40;84.20;;;;;;7651143;22;80758;-71
2022/08/13 08:54:34;;;;;;;14.68;7.68;;;24.30;84.70;;;;;;7651948;22;80373;-70
2022/08/13 08:57:36;;;;;;;13.65;7.03;;;24.30;84.90;;;;;;7654091;22;80460;-71
2022/08/13 09:00:39;;;;;;;15.70;7.85;;;24.40;84.50;;;;;;7655320;22;80025;-79
2022/08/13 09:03:40;;;;;;;12.73;7.95;;;24.50;84.30;;;;;;7651546;22;80591;-70
2022/08/13 09:06:40;;;;;;;12.70;8.48;;;24.50;84.30;;;;;;7652387;22;81294;-67
2022/08/13 09:09:41;;;;;;;12.40;8.10;;;24.50;84.70;;;;;;7649513;22;80403;-68
2022/08/13 09:12:42;;;;;;;14.07;9.35;;;24.60;83.90;;;;;;7649550;22;80382;-67
2022/08/13 09:15:44;;;;;;;14.68;8.40;;;24.60;83.80;;;;;;7649903;22;80667;-68
2022/08/13 09:18:44;;;;;;;16.98;9.50;;;24.60;83.70;;;;;;7650080;22;81612;-69
2022/08/13 09:21:45;;;;;;;12.15;7.85;;;24.60;83.40;;;;;;7650204;22;80595;-72
2022/08/13 09:24:46;;;;;;;11.70;7.57;;;24.60;83.30;;;;;;7650192;22;80463;-70
2022/08/13 09:27:46;;;;;;;13.90;8.07;;;24.70;82.70;;;;;;7649864;22;80348;-67
2022/08/13 09:30:48;;;;;;;15.68;8.35;;;24.70;82.80;;;;;;7649626;22;80705;-67
2022/08/13 09:33:49;;;;;;;13.25;8.80;;;24.70;82.80;;;;;;7647381;22;81578;-77
2022/08/13 09:36:50;;;;;;;17.35;10.38;;;24.70;83.00;;;;;;7651159;22;80304;-82
2022/08/13 09:39:50;;;;;;;16.50;10.20;;;24.60;82.20;;;;;;7646245;22;83200;-72
2022/08/13 09:42:57;;;;;;;14.65;10.05;;;24.60;82.10;;;;;;7646712;22;83235;-72
2022/08/13 09:45:57;;;;;;;16.60;10.00;;;24.50;82.10;;;;;;7646097;22;84358;-71
2022/08/13 09:48:58;;;;;;;14.68;9.60;;;24.50;82.70;;;;;;7646034;22;83282;-68
2022/08/13 09:51:58;;;;;;;18.55;10.23;;;24.50;83.10;;;;;;7649651;22;84049;-71
2022/08/13 09:54:59;;;;;;;19.70;10.13;;;24.40;83.40;;;;;;7645535;22;82805;-78
2022/08/13 09:57:59;;;;;;;14.07;9.57;;;24.40;84.00;;;;;;7646313;22;82982;-73
2022/08/13 10:01:00;;;;;;;14.57;9.57;;;24.30;84.40;;;;;;7650038;22;81735;-69
2022/08/13 10:04:01;;;;;;;14.82;9.65;;;24.40;84.90;;;;;;7649922;22;80596;-67
2022/08/13 10:07:01;;;;;;;19.48;10.90;;;24.30;84.70;;;;;;7649045;22;80434;-67
2022/08/13 10:10:02;;;;;;;12.98;8.95;;;24.30;84.80;;;;;;7645315;22;83114;-67
2022/08/13 10:13:03;;;;;;;13.98;9.35;;;24.30;84.40;;;;;;7648800;22;83078;-68
2022/08/13 10:16:04;;;;;;;16.80;9.13;;;24.30;84.60;;;;;;7649829;22;80757;-69
2022/08/13 10:19:06;;;;;;;22.48;10.55;;;24.30;85.20;;;;;;7649394;22;80489;-71
2022/08/13 10:22:07;;;;;;;15.23;9.75;;;24.30;85.70;;;;;;7644851;22;82842;-69
2022/08/13 10:25:07;;;;;;;14.57;9.65;;;24.30;86.40;;;;;;7649663;22;83917;-72
2022/08/13 10:28:08;;;;;;;15.93;9.85;;;24.30;86.90;;;;;;7649731;22;80806;-71
2022/08/13 10:31:08;;;;;;;14.38;9.48;;;24.30;87.00;;;;;;7649798;22;80353;-72
2022/08/13 10:34:09;;;;;;;14.93;9.98;;;24.40;87.20;;;;;;7649033;22;80797;-71
2022/08/13 10:37:09;;;;;;;14.05;9.15;;;24.50;87.10;;;;;;7645113;22;82516;-80
2022/08/13 10:40:14;;;;;;;15.00;9.85;;;24.50;86.50;;;;;;7649639;22;84232;-70
2022/08/13 10:43:14;;;;;;;14.68;9.75;;;24.60;86.40;;;;;;7648881;22;80691;-70
2022/08/13 10:46:20;;;;;;;14.70;8.95;;;24.60;85.00;;;;;;7649873;22;80269;-70
2022/08/13 10:49:21;;;;;;;35.92;15.02;;;24.50;84.90;;;;;;7647404;22;81480;-71
2022/08/13 10:52:24;;;;;;;20.92;11.63;;;24.50;84.60;;;;;;7644582;22;82901;-69
2022/08/13 10:55:24;;;;;;;18.75;13.15;;;24.40;84.20;;;;;;7644403;22;89460;-69
2022/08/13 10:58:25;;;;;;;33.95;18.98;;;24.40;84.30;;;;;;7642894;22;84323;-69
2022/08/13 11:01:26;;;;;;;45.53;23.67;;;24.40;86.10;;;;;;7645114;22;83299;-69
2022/08/13 11:04:28;;;;;;;36.10;20.27;;;24.40;87.20;;;;;;7644886;22;83064;-70
2022/08/13 11:07:30;;;;;;;29.95;17.88;;;24.40;86.50;;;;;;7643685;22;83618;-69
2022/08/13 11:10:31;;;;;;;28.33;16.45;;;24.40;87.10;;;;;;7644747;22;83971;-70
2022/08/13 11:13:31;;;;;;;26.13;15.25;;;24.40;86.40;;;;;;7644806;22;82840;-69
2022/08/13 11:19:37;;;;;;;33.28;20.63;;;24.40;86.30;;;;;;7643912;22;84497;-69
2022/08/13 11:22:37;;;;;;;28.52;18.10;;;24.40;86.80;;;;;;7644447;22;83855;-69
2022/08/13 11:25:38;;;;;;;25.48;15.80;;;24.40;86.40;;;;;;7644621;22;83130;-69
2022/08/13 11:28:38;;;;;;;22.88;13.68;;;24.40;86.90;;;;;;7644420;22;83652;-69
2022/08/13 11:31:39;;;;;;;20.65;13.88;;;24.40;86.60;;;;;;7644974;22;82839;-70
2022/08/13 11:34:39;;;;;;;20.45;13.15;;;24.30;86.70;;;;;;7645625;22;82943;-70
2022/08/13 11:37:40;;;;;;;18.73;12.70;;;24.40;86.20;;;;;;7645526;22;84476;-69
2022/08/13 11:40:41;;;;;;;15.88;10.93;;;24.40;85.70;;;;;;7645734;22;82912;-69
2022/08/13 11:43:41;;;;;;;15.00;10.25;;;24.40;86.00;;;;;;7645787;22;83475;-69
2022/08/13 11:46:42;;;;;;;14.20;10.20;;;24.40;85.90;;;;;;7646246;22;82929;-68
2022/08/13 11:49:42;;;;;;;18.70;11.10;;;24.40;86.40;;;;;;7645975;22;83048;-70
2022/08/13 11:52:43;;;;;;;19.13;11.30;;;24.40;86.10;;;;;;7643580;22;83954;-68
2022/08/13 11:55:43;;;;;;;16.23;10.43;;;24.40;86.30;;;;;;7646179;22;82993;-70
2022/08/13 11:58:44;;;;;;;15.70;10.50;;;24.50;86.20;;;;;;7645024;22;84010;-68
2022/08/13 12:01:44;;;;;;;20.05;10.55;;;24.50;86.10;;;;;;7646408;22;83083;-67
2022/08/13 12:04:45;;;;;;;15.55;11.23;;;24.50;85.60;;;;;;7646077;22;83407;-67
2022/08/13 12:07:45;;;;;;;16.27;10.32;;;24.60;86.00;;;;;;7646516;22;83991;-68
2022/08/13 12:10:47;;;;;;;14.57;10.50;;;24.60;85.20;;;;;;7646188;22;83019;-66
2022/08/13 12:13:47;;;;;;;15.02;10.32;;;24.70;85.50;;;;;;7645835;22;82990;-67
2022/08/13 12:16:48;;;;;;;14.15;9.80;;;24.70;84.90;;;;;;7646268;22;83114;-67
2022/08/13 12:19:48;;;;;;;14.27;9.93;;;24.70;85.30;;;;;;7650153;22;82743;-66
2022/08/13 12:22:49;;;;;;;15.70;10.85;;;24.70;85.00;;;;;;7650308;22;80179;-66
2022/08/13 12:25:49;;;;;;;15.38;9.77;;;24.70;84.00;;;;;;7646304;22;82520;-67
2022/08/13 12:28:50;;;;;;;19.70;10.30;;;24.70;83.90;;;;;;7649767;22;82681;-67
2022/08/13 12:31:50;;;;;;;16.23;10.05;;;24.70;83.80;;;;;;7646433;22;82950;-66
2022/08/13 12:34:51;;;;;;;14.50;10.15;;;24.70;83.20;;;;;;7646239;22;83050;-67
2022/08/13 12:37:53;;;;;;;17.30;10.00;;;24.70;83.10;;;;;;7646476;22;83210;-66
2022/08/13 12:40:53;;;;;;;13.38;9.68;;;24.70;82.90;;;;;;7645670;22;83375;-67
2022/08/13 12:43:54;;;;;;;16.23;10.02;;;24.70;82.70;;;;;;7649738;22;82844;-67
2022/08/13 12:46:54;;;;;;;14.38;9.85;;;24.70;83.20;;;;;;7644349;22;82722;-67
2022/08/13 12:49:55;;;;;;;13.75;9.88;;;24.70;83.10;;;;;;7650677;22;82770;-65
2022/08/13 12:52:55;;;;;;;15.75;10.02;;;24.70;83.90;;;;;;7650559;22;81354;-67
2022/08/13 12:55:56;;;;;;;13.48;9.75;;;24.70;83.40;;;;;;7646499;22;83007;-67
2022/08/13 12:58:56;;;;;;;22.75;10.20;;;24.70;83.60;;;;;;7649799;22;83231;-67
2022/08/13 13:01:59;;;;;;;15.02;10.38;;;24.70;83.10;;;;;;7646099;22;83045;-67
2022/08/13 13:05:00;;;;;;;14.80;9.73;;;24.70;83.80;;;;;;7645978;22;83010;-67
2022/08/13 13:08:00;;;;;;;13.68;10.27;;;24.70;83.90;;;;;;7649995;22;83947;-67
2022/08/13 13:11:02;;;;;;;15.95;10.00;;;24.60;83.10;;;;;;7645974;22;82793;-67
2022/08/13 13:14:02;;;;;;;14.88;10.30;;;24.70;82.90;;;;;;7645819;22;82722;-68
2022/08/13 13:17:03;;;;;;;13.57;10.10;;;24.60;82.90;;;;;;7645781;22;83066;-67
2022/08/13 13:20:03;;;;;;;14.50;10.73;;;24.60;83.60;;;;;;7646288;22;83076;-68
2022/08/13 13:23:04;;;;;;;14.93;10.77;;;24.50;84.60;;;;;;7645205;22;83017;-68
2022/08/13 13:26:04;;;;;;;20.50;11.52;;;24.50;85.70;;;;;;7645351;22;89506;-68
2022/08/13 13:29:06;;;;;;;15.13;10.93;;;24.40;87.00;;;;;;7645823;22;83074;-67
2022/08/13 13:32:06;;;;;;;17.23;11.05;;;24.40;88.90;;;;;;7645496;22;82819;-67
2022/08/13 13:35:07;;;;;;;18.73;11.68;;;24.40;90.10;;;;;;7646170;22;83273;-67
2022/08/13 13:38:07;;;;;;;21.33;13.60;;;24.40;90.70;;;;;;7645086;22;83018;-67
2022/08/13 13:41:08;;;;;;;16.25;11.45;;;24.30;91.40;;;;;;7643412;22;83014;-68
2022/08/13 13:44:08;;;;;;;17.23;11.98;;;24.40;91.60;;;;;;7643927;22;82900;-67
2022/08/13 13:47:09;;;;;;;20.55;11.82;;;24.40;91.40;;;;;;7645033;22;83991;-67
2022/08/13 13:50:09;;;;;;;16.52;11.90;;;24.40;91.30;;;;;;7645633;22;82875;-67
2022/08/13 13:53:11;;;;;;;15.45;11.20;;;24.50;91.50;;;;;;7645790;22;83938;-68
2022/08/13 13:56:12;;;;;;;14.68;10.88;;;24.40;91.70;;;;;;7643302;22;83527;-67
2022/08/13 13:59:12;;;;;;;18.95;10.57;;;24.50;91.70;;;;;;7645014;22;83944;-68
2022/08/13 14:02:13;;;;;;;18.90;10.65;;;24.50;91.40;;;;;;7646122;22;83530;-67
2022/08/13 14:05:14;;;;;;;15.07;11.00;;;24.60;91.50;;;;;;7645403;22;83034;-67
2022/08/13 14:08:15;;;;;;;13.57;10.48;;;24.60;91.60;;;;;;7645669;22;84225;-67
2022/08/13 14:11:16;;;;;;;16.48;12.02;;;24.60;91.60;;;;;;7645162;22;87699;-67
2022/08/13 14:14:16;;;;;;;13.85;11.18;;;24.70;92.00;;;;;;7645493;22;82815;-67
2022/08/13 14:17:17;;;;;;;19.67;11.45;;;24.70;92.10;;;;;;7645409;22;83082;-67
2022/08/13 14:20:17;;;;;;;19.95;11.57;;;24.70;91.80;;;;;;7645701;22;83078;-67
2022/08/13 14:23:18;;;;;;;13.75;9.93;;;24.80;91.90;;;;;;7645451;22;83248;-68
2022/08/13 14:26:19;;;;;;;15.65;10.40;;;24.80;91.40;;;;;;7649527;22;82015;-68
2022/08/13 14:29:19;;;;;;;15.20;10.65;;;24.90;91.40;;;;;;7643883;22;82739;-68
2022/08/13 14:32:19;;;;;;;15.20;9.73;;;24.80;91.30;;;;;;7645111;22;85940;-67
2022/08/13 14:35:20;;;;;;;15.65;10.18;;;24.80;91.10;;;;;;7648934;22;83069;-68
2022/08/13 14:38:20;;;;;;;12.13;9.45;;;24.80;91.10;;;;;;7644510;22;82916;-68
2022/08/13 14:41:21;;;;;;;14.77;9.95;;;24.90;91.30;;;;;;7649433;22;83794;-67
2022/08/13 14:44:21;;;;;;;16.45;9.98;;;24.90;91.30;;;;;;7649745;22;80821;-68
2022/08/13 14:47:22;;;;;;;15.85;10.27;;;24.90;90.90;;;;;;7645933;22;82666;-68
2022/08/13 14:50:22;;;;;;;16.30;11.18;;;24.90;91.00;;;;;;7645304;22;82793;-67
2022/08/13 14:53:23;;;;;;;17.30;10.52;;;24.80;91.10;;;;;;7645057;22;83685;-67
2022/08/13 14:56:23;;;;;;;29.00;10.60;;;24.90;91.20;;;;;;7644913;22;83100;-67
2022/08/13 14:59:24;;;;;;;14.73;10.52;;;24.90;91.10;;;;;;7644412;22;82914;-68
2022/08/13 15:02:24;;;;;;;17.15;10.55;;;24.90;91.10;;;;;;7644883;22;84181;-68
2022/08/13 15:05:26;;;;;;;18.48;11.13;;;24.90;91.50;;;;;;7644799;22;83947;-68
2022/08/13 15:08:28;;;;;;;19.70;11.32;;;24.90;91.70;;;;;;7646580;22;82842;-67
2022/08/13 15:11:29;;;;;;;14.50;10.68;;;24.90;92.30;;;;;;7646057;22;84075;-67
2022/08/13 15:14:29;;;;;;;16.70;10.48;;;25.00;92.00;;;;;;7646321;22;83412;-67
2022/08/13 15:17:30;;;;;;;16.13;11.57;;;25.00;92.00;;;;;;7646198;22;82803;-68
2022/08/13 15:20:31;;;;;;;20.33;11.15;;;25.00;91.90;;;;;;7646518;22;83419;-68
2022/08/13 15:23:31;;;;;;;19.10;12.02;;;25.00;91.70;;;;;;7646079;22;84659;-68
2022/08/13 15:26:32;;;;;;;16.02;12.48;;;25.00;91.80;;;;;;7645122;22;83296;-69
2022/08/13 15:29:33;;;;;;;17.90;12.75;;;24.90;91.90;;;;;;7646394;22;82937;-68
2022/08/13 15:32:34;;;;;;;21.27;13.00;;;24.90;92.50;;;;;;7645711;22;83152;-68
2022/08/13 15:35:34;;;;;;;18.75;12.70;;;24.90;91.90;;;;;;7645241;22;83520;-69
2022/08/13 15:38:34;;;;;;;22.25;12.88;;;25.00;92.60;;;;;;7645498;22;85006;-69
2022/08/13 15:41:35;;;;;;;16.08;11.68;;;24.90;92.80;;;;;;7645732;22;83032;-68
2022/08/13 15:44:35;;;;;;;23.65;12.80;;;24.90;93.20;;;;;;7645846;22;82818;-68
2022/08/13 15:47:37;;;;;;;22.17;13.82;;;24.90;93.40;;;;;;7645601;22;83720;-68